createdAt,value
2018-06-16T00:00:38.943Z,93.35
2018-06-16T00:03:07.986Z,102.47
2018-06-16T00:05:37.053Z,104.97
2018-06-16T00:08:06.170Z,98.97
2018-06-16T00:10:35.267Z,99.72
2018-06-16T00:13:04.376Z,119.93
2018-06-16T00:15:33.431Z,113.40
2018-06-16T00:18:02.600Z,110.42
2018-06-16T00:20:31.617Z,112.75
2018-06-16T00:23:00.671Z,112.80
2018-06-16T00:25:29.767Z,113.45
2018-06-16T00:27:58.799Z,116.77
2018-06-16T00:30:27.821Z,110.57
2018-06-16T00:32:56.876Z,123.85
2018-06-16T00:35:25.891Z,123.85
2018-06-16T00:37:54.939Z,116.05
2018-06-16T00:40:23.967Z,113.20
2018-06-16T00:42:53.012Z,112.00
2018-06-16T00:45:22.052Z,108.83
2018-06-16T00:47:51.096Z,105.03
2018-06-16T00:50:20.104Z,115.35
2018-06-16T00:52:49.218Z,107.55
2018-06-16T00:55:18.236Z,115.90
2018-06-16T00:57:48.652Z,109.17
2018-06-16T01:00:18.756Z,103.85
2018-06-16T01:02:48.291Z,105.40
2018-06-16T01:05:17.318Z,108.07
2018-06-16T01:07:46.399Z,112.05
2018-06-16T01:10:15.440Z,105.27
2018-06-16T01:12:44.489Z,106.47
2018-06-16T01:15:13.543Z,110.97
2018-06-16T01:17:42.556Z,106.50
2018-06-16T01:20:11.608Z,108.37
2018-06-16T01:22:40.655Z,106.58
2018-06-16T01:25:09.671Z,113.15
2018-06-16T01:27:38.724Z,108.92
2018-06-16T01:30:07.737Z,106.15
2018-06-16T01:32:36.781Z,105.87
2018-06-16T01:35:05.821Z,117.67
2018-06-16T01:37:34.870Z,105.92
2018-06-16T01:40:03.975Z,106.03
2018-06-16T01:42:32.991Z,109.10
2018-06-16T01:45:02.053Z,105.35
2018-06-16T01:47:31.088Z,102.07
2018-06-16T01:50:00.092Z,98.47
2018-06-16T01:52:29.136Z,102.38
2018-06-16T01:54:58.176Z,99.47
2018-06-16T01:57:27.216Z,99.92
2018-06-16T01:59:56.248Z,99.52
2018-06-16T02:02:25.272Z,97.12
2018-06-16T02:04:54.321Z,99.97
2018-06-16T02:07:23.365Z,106.37
2018-06-16T02:09:52.436Z,101.05
2018-06-16T02:12:21.444Z,101.05
2018-06-16T02:14:50.544Z,103.62
2018-06-16T02:17:19.574Z,104.03
2018-06-16T02:19:48.622Z,104.58
2018-06-16T02:22:17.687Z,103.30
2018-06-16T02:24:46.768Z,105.25
2018-06-16T02:27:15.785Z,102.90
2018-06-16T02:29:44.826Z,99.97
2018-06-16T02:32:13.835Z,104.85
2018-06-16T02:34:42.909Z,100.02
2018-06-16T02:37:11.936Z,101.75
2018-06-16T02:39:41.011Z,98.58
2018-06-16T02:42:10.045Z,101.00
2018-06-16T02:44:39.096Z,109.50
2018-06-16T02:47:08.108Z,100.42
2018-06-16T02:49:37.154Z,99.97
2018-06-16T02:52:06.562Z,97.85
2018-06-16T02:54:35.606Z,101.38
2018-06-16T02:57:04.616Z,99.30
2018-06-16T02:59:33.819Z,101.65
2018-06-16T03:02:03.225Z,101.15
2018-06-16T03:04:32.284Z,101.87
2018-06-16T03:07:01.311Z,107.75
2018-06-16T03:09:30.347Z,99.17
2018-06-16T03:11:59.387Z,101.38
2018-06-16T03:14:28.440Z,109.20
2018-06-16T03:16:57.458Z,106.32
2018-06-16T03:19:26.210Z,102.92
2018-06-16T03:21:55.173Z,98.60
2018-06-16T03:24:24.252Z,102.35
2018-06-16T03:26:53.261Z,99.37
2018-06-16T03:29:22.306Z,101.65
2018-06-16T03:31:51.336Z,103.90
2018-06-16T03:34:20.384Z,100.92
2018-06-16T03:36:49.428Z,107.17
2018-06-16T03:39:18.611Z,102.80
2018-06-16T03:41:47.621Z,106.90
2018-06-16T03:44:16.650Z,106.58
2018-06-16T03:46:45.691Z,100.10
2018-06-16T03:49:14.695Z,99.30
2018-06-16T03:51:43.736Z,108.27
2018-06-16T03:54:12.752Z,99.65
2018-06-16T03:56:41.851Z,100.82
2018-06-16T03:59:10.856Z,102.07
2018-06-16T04:01:40.093Z,110.97
2018-06-16T04:04:09.159Z,105.87
2018-06-16T04:06:38.176Z,101.65
2018-06-16T04:09:09.010Z,103.27
2018-06-16T04:11:38.626Z,108.05
2018-06-16T04:14:07.956Z,101.05
2018-06-16T04:16:37.058Z,104.80
2018-06-16T04:19:06.084Z,98.27
2018-06-16T04:21:35.145Z,106.17
2018-06-16T04:24:04.242Z,107.00
2018-06-16T04:26:33.264Z,102.47
2018-06-16T04:29:02.273Z,98.30
2018-06-16T04:31:31.321Z,99.42
2018-06-16T04:34:00.369Z,101.02
2018-06-16T04:36:29.436Z,100.02
2018-06-16T04:38:58.457Z,103.17
2018-06-16T04:41:27.596Z,96.75
2018-06-16T04:43:56.605Z,97.75
2018-06-16T04:46:25.649Z,96.60
2018-06-16T04:48:54.664Z,97.80
2018-06-16T04:51:23.763Z,99.87
2018-06-16T04:53:52.779Z,95.55
2018-06-16T04:56:21.788Z,98.65
2018-06-16T04:58:50.824Z,102.58
2018-06-16T05:01:19.825Z,95.42
2018-06-16T05:03:48.885Z,98.85
2018-06-16T05:06:17.990Z,95.90
2018-06-16T05:08:47.021Z,99.13
2018-06-16T05:11:16.068Z,100.07
2018-06-16T05:13:45.144Z,101.45
2018-06-16T05:16:14.175Z,96.25
2018-06-16T05:18:43.215Z,101.97
2018-06-16T05:21:12.269Z,98.50
2018-06-16T05:23:41.359Z,108.07
2018-06-16T05:26:10.407Z,99.07
2018-06-16T05:28:39.487Z,97.97
2018-06-16T05:31:08.503Z,100.78
2018-06-16T05:33:37.552Z,108.72
2018-06-16T05:36:06.625Z,103.27
2018-06-16T05:38:35.784Z,99.72
2018-06-16T05:41:04.810Z,100.47
2018-06-16T05:43:33.873Z,100.12
2018-06-16T05:46:02.885Z,107.30
2018-06-16T05:48:31.921Z,99.85
2018-06-16T05:51:00.938Z,106.07
2018-06-16T05:53:29.986Z,101.33
2018-06-16T05:55:59.010Z,102.10
2018-06-16T05:58:28.048Z,98.75
2018-06-16T06:00:57.070Z,106.80
2018-06-16T06:03:26.144Z,106.32
2018-06-16T06:05:55.207Z,124.78
2018-06-16T06:08:24.289Z,110.15
2018-06-16T06:10:53.575Z,102.60
2018-06-16T06:13:22.704Z,98.80
2018-06-16T06:15:51.821Z,102.12
2018-06-16T06:18:20.860Z,105.65
2018-06-16T06:20:49.892Z,103.15
2018-06-16T06:23:19.054Z,103.07
2018-06-16T06:25:48.105Z,103.80
2018-06-16T06:28:17.156Z,106.45
2018-06-16T06:30:46.204Z,97.85
2018-06-16T06:33:15.236Z,103.15
2018-06-16T06:35:44.296Z,101.62
2018-06-16T06:38:13.333Z,106.10
2018-06-16T06:40:42.396Z,121.02
2018-06-16T06:43:11.495Z,137.93
2018-06-16T06:45:40.977Z,120.57
2018-06-16T06:48:10.117Z,117.40
2018-06-16T06:50:39.224Z,127.90
2018-06-16T06:53:08.577Z,139.87
2018-06-16T06:55:37.805Z,129.27
2018-06-16T06:58:07.046Z,120.17
2018-06-16T07:00:36.094Z,121.40
2018-06-16T07:03:05.471Z,145.70
2018-06-16T07:05:35.428Z,118.93
2018-06-16T07:08:05.657Z,133.10
2018-06-16T07:10:34.804Z,127.00
2018-06-16T07:13:03.868Z,130.27
2018-06-16T07:15:32.891Z,136.00
2018-06-16T07:18:01.948Z,125.60
2018-06-16T07:20:31.007Z,127.37
2018-06-16T07:23:00.051Z,93.80
2018-06-16T07:25:29.105Z,114.23
2018-06-16T07:27:58.170Z,102.40
2018-06-16T07:30:27.748Z,97.17
2018-06-16T07:32:57.246Z,90.40
2018-06-16T07:35:26.311Z,94.27
2018-06-16T07:37:55.372Z,102.23
2018-06-16T07:40:24.438Z,90.40
2018-06-16T07:42:53.752Z,94.37
2018-06-16T07:45:22.840Z,89.53
2018-06-16T07:47:51.863Z,95.97
2018-06-16T07:50:21.287Z,125.60
2018-06-16T07:52:51.135Z,88.67
2018-06-16T07:55:20.734Z,91.03
2018-06-16T07:57:49.893Z,90.43
2018-06-16T08:00:19.238Z,93.00
2018-06-16T08:02:48.423Z,86.73
2018-06-16T08:05:17.600Z,89.57
2018-06-16T08:07:46.664Z,89.07
2018-06-16T08:10:16.225Z,90.43
2018-06-16T08:12:45.434Z,86.57
2018-06-16T08:15:14.593Z,89.30
2018-06-16T08:17:43.869Z,84.63
2018-06-16T08:20:15.120Z,85.93
2018-06-16T08:22:44.235Z,86.37
2018-06-16T08:25:13.390Z,87.67
2018-06-16T08:27:42.539Z,85.30
2018-06-16T08:30:11.975Z,86.27
2018-06-16T08:32:41.112Z,87.80
2018-06-16T08:35:12.387Z,87.40
2018-06-16T08:37:41.445Z,85.90
2018-06-16T08:40:11.387Z,82.37
2018-06-16T08:42:40.927Z,82.67
2018-06-16T08:45:09.990Z,85.00
2018-06-16T08:47:39.064Z,87.83
2018-06-16T08:50:08.435Z,83.87
2018-06-16T08:52:37.627Z,84.17
2018-06-16T08:55:06.730Z,83.87
2018-06-16T08:57:35.945Z,84.97
2018-06-16T09:00:05.567Z,87.03
2018-06-16T09:02:34.958Z,83.40
2018-06-16T09:05:04.116Z,85.10
2018-06-16T09:07:33.350Z,85.27
2018-06-16T09:10:02.448Z,83.50
2018-06-16T09:12:31.504Z,81.97
2018-06-16T09:15:01.095Z,84.10
2018-06-16T09:17:30.241Z,83.37
2018-06-16T09:19:59.268Z,80.70
2018-06-16T09:22:28.322Z,83.53
2018-06-16T09:24:57.223Z,82.57
2018-06-16T09:27:26.275Z,84.50
2018-06-16T09:29:55.417Z,84.30
2018-06-16T09:32:24.428Z,83.93
2018-06-16T09:34:53.574Z,82.97
2018-06-16T09:37:22.597Z,83.30
2018-06-16T09:39:51.801Z,81.33
2018-06-16T09:42:20.842Z,80.97
2018-06-16T09:44:51.738Z,80.10
2018-06-16T09:47:20.845Z,80.67
2018-06-16T09:49:49.867Z,81.77
2018-06-16T09:52:19.179Z,80.00
2018-06-16T09:54:48.228Z,87.80
2018-06-16T09:57:17.331Z,85.53
2018-06-16T09:59:46.391Z,84.67
2018-06-16T10:02:15.413Z,80.90
2018-06-16T10:04:44.492Z,92.10
2018-06-16T10:07:14.131Z,81.37
2018-06-16T10:09:43.165Z,82.57
2018-06-16T10:12:12.180Z,80.40
2018-06-16T10:14:41.223Z,87.27
2018-06-16T10:17:10.335Z,81.50
2018-06-16T10:19:39.374Z,80.27
2018-06-16T10:22:08.663Z,80.23
2018-06-16T10:24:37.964Z,89.17
2018-06-16T10:27:07.224Z,84.47
2018-06-16T10:29:36.325Z,89.43
2018-06-16T10:32:05.435Z,85.27
2018-06-16T10:34:34.712Z,83.47
2018-06-16T10:37:04.148Z,81.43
2018-06-16T10:39:33.508Z,83.23
2018-06-16T10:42:02.731Z,82.60
2018-06-16T10:44:31.784Z,84.70
2018-06-16T10:47:01.277Z,81.07
2018-06-16T10:49:30.501Z,84.30
2018-06-16T10:51:59.660Z,81.40
2018-06-16T10:54:28.735Z,81.17
2018-06-16T10:56:57.855Z,82.77
2018-06-16T10:59:27.471Z,84.37
2018-06-16T11:01:56.919Z,82.27
2018-06-16T11:04:26.510Z,81.80
2018-06-16T11:06:56.363Z,82.53
2018-06-16T11:09:26.332Z,83.87
2018-06-16T11:11:55.408Z,83.00
2018-06-16T11:14:24.474Z,84.90
2018-06-16T11:16:53.640Z,81.57
2018-06-16T11:19:22.810Z,82.07
2018-06-16T11:21:52.004Z,83.87
2018-06-16T11:24:21.055Z,82.00
2018-06-16T11:26:50.147Z,84.90
2018-06-16T11:29:19.261Z,82.63
2018-06-16T11:31:48.342Z,84.30
2018-06-16T11:34:17.548Z,84.33
2018-06-16T11:36:46.836Z,85.03
2018-06-16T11:39:15.995Z,83.57
2018-06-16T11:41:45.213Z,83.93
2018-06-16T11:44:14.389Z,85.00
2018-06-16T11:46:43.476Z,83.27
2018-06-16T11:49:12.492Z,86.07
2018-06-16T11:51:41.540Z,112.90
2018-06-16T11:54:10.552Z,95.43
2018-06-16T11:56:39.619Z,84.97
2018-06-16T11:59:08.680Z,145.13
2018-06-16T12:01:37.812Z,86.07
2018-06-16T12:04:06.888Z,86.30
2018-06-16T12:06:35.968Z,84.60
2018-06-16T12:09:07.815Z,85.07
2018-06-16T12:11:36.916Z,90.70
2018-06-16T12:14:06.096Z,83.73
2018-06-16T12:16:35.154Z,83.17
2018-06-16T12:19:04.198Z,83.40
2018-06-16T12:21:33.215Z,83.37
2018-06-16T12:24:02.280Z,82.20
2018-06-16T12:26:31.401Z,86.17
2018-06-16T12:29:00.624Z,81.87
2018-06-16T12:31:30.595Z,87.73
2018-06-16T12:33:59.724Z,96.90
2018-06-16T12:36:28.812Z,106.23
2018-06-16T12:38:57.863Z,84.07
2018-06-16T12:41:26.920Z,82.97
2018-06-16T12:43:55.975Z,82.67
2018-06-16T12:46:25.007Z,84.00
2018-06-16T12:48:54.135Z,79.97
2018-06-16T12:51:23.189Z,83.50
2018-06-16T12:53:52.432Z,82.30
2018-06-16T12:56:21.480Z,84.37
2018-06-16T12:58:50.548Z,88.00
2018-06-16T13:01:19.617Z,83.33
2018-06-16T13:03:48.632Z,95.83
2018-06-16T13:06:17.688Z,117.93
2018-06-16T13:08:53.181Z,86.77
2018-06-16T13:11:22.236Z,83.37
2018-06-16T13:13:51.283Z,86.67
2018-06-16T13:16:20.332Z,90.10
2018-06-16T13:18:49.351Z,84.00
2018-06-16T13:21:18.419Z,84.97
2018-06-16T13:23:47.572Z,84.03
2018-06-16T13:26:16.680Z,81.23
2018-06-16T13:28:45.727Z,132.60
2018-06-16T13:31:14.755Z,83.37
2018-06-16T13:33:43.975Z,116.93
2018-06-16T13:36:12.707Z,85.73
2018-06-16T13:38:41.633Z,92.77
2018-06-16T13:41:10.686Z,83.67
2018-06-16T13:43:39.744Z,81.97
2018-06-16T13:46:08.781Z,85.03
2018-06-16T13:48:37.836Z,84.93
2018-06-16T13:51:06.915Z,82.57
2018-06-16T13:53:35.975Z,83.57
2018-06-16T13:56:05.064Z,82.43
2018-06-16T13:58:34.115Z,83.53
2018-06-16T14:01:03.309Z,83.97
2018-06-16T14:03:32.353Z,82.97
2018-06-16T14:06:01.595Z,81.90
2018-06-16T14:08:30.640Z,83.07
2018-06-16T14:10:59.664Z,83.37
2018-06-16T14:13:28.707Z,81.27
2018-06-16T14:15:57.776Z,80.90
2018-06-16T14:18:26.835Z,82.97
2018-06-16T14:20:55.899Z,81.37
2018-06-16T14:23:24.971Z,85.60
2018-06-16T14:25:54.025Z,82.90
2018-06-16T14:28:23.107Z,81.53
2018-06-16T14:30:52.186Z,83.37
2018-06-16T14:33:21.257Z,80.50
2018-06-16T14:35:50.435Z,79.17
2018-06-16T14:38:19.486Z,78.90
2018-06-16T14:40:48.556Z,79.70
2018-06-16T14:43:17.680Z,79.17
2018-06-16T14:45:46.782Z,80.00
2018-06-16T14:48:16.174Z,78.70
2018-06-16T14:50:45.210Z,78.80
2018-06-16T14:53:13.927Z,79.90
2018-06-16T14:55:42.894Z,79.50
2018-06-16T14:58:11.966Z,81.50
2018-06-16T15:00:41.129Z,79.17
2018-06-16T15:03:10.191Z,80.90
2018-06-16T15:05:39.235Z,79.20
2018-06-16T15:08:08.292Z,81.10
2018-06-16T15:10:37.329Z,81.03
2018-06-16T15:13:06.412Z,79.83
2018-06-16T15:15:35.459Z,79.70
2018-06-16T15:18:04.196Z,78.70
2018-06-16T15:20:33.161Z,80.60
2018-06-16T15:23:02.174Z,79.40
2018-06-16T15:25:31.260Z,86.93
2018-06-16T15:28:00.290Z,78.97
2018-06-16T15:30:29.376Z,79.57
2018-06-16T15:32:58.471Z,78.17
2018-06-16T15:35:27.550Z,78.40
2018-06-16T15:37:56.561Z,79.57
2018-06-16T15:40:25.664Z,80.37
2018-06-16T15:42:54.716Z,79.20
2018-06-16T15:45:23.832Z,82.70
2018-06-16T15:47:52.881Z,80.50
2018-06-16T15:50:21.938Z,79.60
2018-06-16T15:52:51.383Z,79.60
2018-06-16T15:55:20.429Z,80.80
2018-06-16T15:57:49.479Z,82.20
2018-06-16T16:00:18.544Z,81.37
2018-06-16T16:02:47.644Z,79.63
2018-06-16T16:05:16.723Z,81.30
2018-06-16T16:07:45.784Z,81.73
2018-06-16T16:10:14.871Z,81.47
2018-06-16T16:12:43.949Z,80.33
2018-06-16T16:15:13.055Z,80.43
2018-06-16T16:17:42.137Z,80.60
2018-06-16T16:20:11.349Z,82.70
2018-06-16T16:22:40.412Z,80.47
2018-06-16T16:25:09.572Z,86.57
2018-06-16T16:27:38.651Z,82.53
2018-06-16T16:30:07.754Z,80.00
2018-06-16T16:32:36.831Z,80.27
2018-06-16T16:35:06.039Z,85.80
2018-06-16T16:37:35.163Z,80.73
2018-06-16T16:40:04.639Z,83.70
2018-06-16T16:42:33.839Z,82.77
2018-06-16T16:45:02.949Z,79.77
2018-06-16T16:47:32.073Z,81.33
2018-06-16T16:50:01.200Z,79.00
2018-06-16T16:52:30.252Z,79.70
2018-06-16T16:54:59.304Z,80.10
2018-06-16T16:57:28.448Z,81.10
2018-06-16T16:59:57.568Z,80.80
2018-06-16T17:02:26.823Z,81.63
2018-06-16T17:04:55.908Z,81.10
2018-06-16T17:07:25.005Z,80.77
2018-06-16T17:09:54.372Z,81.10
2018-06-16T17:12:23.354Z,82.20
2018-06-16T17:14:52.353Z,80.30
2018-06-16T17:17:21.413Z,82.07
2018-06-16T17:19:50.504Z,80.70
2018-06-16T17:22:19.600Z,81.07
2018-06-16T17:24:48.710Z,82.03
2018-06-16T17:27:17.825Z,80.90
2018-06-16T17:29:46.866Z,81.77
2018-06-16T17:32:15.990Z,82.57
2018-06-16T17:34:45.128Z,82.67
2018-06-16T17:37:14.239Z,82.87
2018-06-16T17:39:43.267Z,84.37
2018-06-16T17:42:12.370Z,81.50
2018-06-16T17:44:41.413Z,82.77
2018-06-16T17:47:10.638Z,83.30
2018-06-16T17:49:39.883Z,82.97
2018-06-16T17:52:09.040Z,86.33
2018-06-16T17:54:38.249Z,83.50
2018-06-16T17:57:07.347Z,87.70
2018-06-16T17:59:36.679Z,86.53
2018-06-16T18:02:05.901Z,86.60
2018-06-16T18:04:35.117Z,88.33
2018-06-16T18:07:04.434Z,92.40
2018-06-16T18:09:33.520Z,85.20
2018-06-16T18:12:02.803Z,88.03
2018-06-16T18:14:32.141Z,86.50
2018-06-16T18:17:01.640Z,94.40
2018-06-16T18:19:30.693Z,87.90
2018-06-16T18:21:59.740Z,92.93
2018-06-16T18:24:29.015Z,90.83
2018-06-16T18:26:58.267Z,95.67
2018-06-16T18:29:27.425Z,92.23
2018-06-16T18:31:56.648Z,86.43
2018-06-16T18:34:25.735Z,93.60
2018-06-16T18:36:54.815Z,92.73
2018-06-16T18:39:23.849Z,94.67
2018-06-16T18:41:52.974Z,89.40
2018-06-16T18:44:22.084Z,87.57
2018-06-16T18:46:51.193Z,86.67
2018-06-16T18:49:20.312Z,88.00
2018-06-16T18:51:49.534Z,88.90
2018-06-16T18:54:18.339Z,87.90
2018-06-16T18:56:47.394Z,86.17
2018-06-16T18:59:16.615Z,86.90
2018-06-16T19:01:45.753Z,88.77
2018-06-16T19:04:15.021Z,84.50
2018-06-16T19:06:44.097Z,84.50
2018-06-16T19:09:12.939Z,86.33
2018-06-16T19:11:42.072Z,84.10
2018-06-16T19:14:11.094Z,86.10
2018-06-16T19:16:40.009Z,82.80
2018-06-16T19:19:08.982Z,84.77
2018-06-16T19:21:38.283Z,86.30
2018-06-16T19:24:07.579Z,88.07
2018-06-16T19:26:36.933Z,85.27
2018-06-16T19:29:06.195Z,86.87
2018-06-16T19:31:35.380Z,87.87
2018-06-16T19:34:04.577Z,95.93
2018-06-16T19:36:33.640Z,89.10
2018-06-16T19:39:02.950Z,92.80
2018-06-16T19:41:32.124Z,94.17
2018-06-16T19:44:01.456Z,87.10
2018-06-16T19:46:30.379Z,84.10
2018-06-16T19:48:59.557Z,84.60
2018-06-16T19:51:28.793Z,83.00
2018-06-16T19:53:57.983Z,83.07
2018-06-16T19:56:27.193Z,81.40
2018-06-16T19:58:56.814Z,80.40
2018-06-16T20:01:26.589Z,81.70
2018-06-16T20:03:55.869Z,83.00
2018-06-16T20:06:24.959Z,83.27
2018-06-16T20:08:54.267Z,85.00
2018-06-16T20:11:23.346Z,83.87
2018-06-16T20:13:52.567Z,82.90
2018-06-16T20:16:21.598Z,80.53
2018-06-16T20:18:50.663Z,85.20
2018-06-16T20:21:20.299Z,86.10
2018-06-16T20:23:49.350Z,89.80
2018-06-16T20:26:18.386Z,87.23
2018-06-16T20:28:47.448Z,87.95
2018-06-16T20:31:16.483Z,89.35
2018-06-16T20:33:45.872Z,87.67
2018-06-16T20:36:14.932Z,94.50
2018-06-16T20:38:44.046Z,93.67
2018-06-16T20:41:13.055Z,90.92
2018-06-16T20:43:42.148Z,86.75
2018-06-16T20:46:11.212Z,88.60
2018-06-16T20:48:40.441Z,86.08
2018-06-16T20:51:09.525Z,87.60
2018-06-16T20:53:38.673Z,89.17
2018-06-16T20:56:07.693Z,89.65
2018-06-16T20:58:36.777Z,89.90
2018-06-16T21:01:05.595Z,90.17
2018-06-16T21:03:34.540Z,93.80
2018-06-16T21:06:03.596Z,89.95
2018-06-16T21:08:32.664Z,91.20
2018-06-16T21:11:01.776Z,92.57
2018-06-16T21:13:30.851Z,91.63
2018-06-16T21:15:59.896Z,93.27
2018-06-16T21:18:28.988Z,92.45
2018-06-16T21:20:58.009Z,91.67
2018-06-16T21:23:27.083Z,90.50
2018-06-16T21:25:56.175Z,92.45
2018-06-16T21:28:25.189Z,91.42
2018-06-16T21:30:54.446Z,90.35
2018-06-16T21:33:23.479Z,92.75
2018-06-16T21:35:52.960Z,91.70
2018-06-16T21:38:22.110Z,91.80
2018-06-16T21:40:51.177Z,93.97
2018-06-16T21:43:20.300Z,94.28
2018-06-16T21:45:49.511Z,91.17
2018-06-16T21:48:18.591Z,88.03
2018-06-16T21:50:47.681Z,89.72
2018-06-16T21:53:16.700Z,90.03
2018-06-16T21:55:45.782Z,88.47
2018-06-16T21:58:14.779Z,92.90
2018-06-16T22:00:43.892Z,94.17
2018-06-16T22:03:12.896Z,89.05
2018-06-16T22:05:41.962Z,92.95
2018-06-16T22:08:16.309Z,93.50
2018-06-16T22:10:45.410Z,92.05
2018-06-16T22:13:14.451Z,93.30
2018-06-16T22:15:43.560Z,90.12
2018-06-16T22:18:12.579Z,93.47
2018-06-16T22:20:41.660Z,90.60
2018-06-16T22:23:10.677Z,93.90
2018-06-16T22:25:39.742Z,92.02
2018-06-16T22:28:08.800Z,93.25
2018-06-16T22:30:37.829Z,92.60
2018-06-16T22:33:06.949Z,93.15
2018-06-16T22:35:36.099Z,93.80
2018-06-16T22:38:05.279Z,91.80
2018-06-16T22:40:34.304Z,95.90
2018-06-16T22:43:03.332Z,95.67
2018-06-16T22:45:32.403Z,95.20
2018-06-16T22:48:01.432Z,93.67
2018-06-16T22:50:30.497Z,97.02
2018-06-16T22:52:59.527Z,93.75
2018-06-16T22:55:28.580Z,93.97
2018-06-16T22:57:57.693Z,98.80
2018-06-16T23:00:31.012Z,98.20
2018-06-16T23:03:00.065Z,95.00
2018-06-16T23:05:29.103Z,94.07
2018-06-16T23:07:58.143Z,94.30
2018-06-16T23:10:27.189Z,92.75
2018-06-16T23:12:56.201Z,93.12
2018-06-16T23:15:25.284Z,92.90
2018-06-16T23:17:54.296Z,92.50
2018-06-16T23:20:23.344Z,94.77
2018-06-16T23:22:52.410Z,93.22
2018-06-16T23:25:21.467Z,93.55
2018-06-16T23:27:50.486Z,95.50
2018-06-16T23:30:19.519Z,92.20
2018-06-16T23:32:48.549Z,93.27
2018-06-16T23:35:17.595Z,94.30
2018-06-16T23:37:46.636Z,92.90
2018-06-16T23:40:15.680Z,95.65
2018-06-16T23:42:44.723Z,95.75
2018-06-16T23:45:13.812Z,93.33
2018-06-16T23:47:43.197Z,95.53
2018-06-16T23:50:12.273Z,95.05
2018-06-16T23:52:41.327Z,94.22
2018-06-16T23:55:10.418Z,93.75
2018-06-16T23:57:39.424Z,97.65
